Extreme weather reports worldwide

High gusts

Station
 
Location
 
Name
 
Wind
Knots
Gust
Knots
Vis
SM
Temp/Dew
C
Baro
inHg
METAR
 
EHM PAEH Cape Newenham, US Cape Newenham LRRS Airport 18 37 2.5 9/9 29.95 PAEH 080046Z AUTO 33018G37KT 270V160 2 1/2SM BR OVC003 09/09 A2995 RMK AO2 PK WND 27042/0025 SLP144
KNSI San Nicolas Island, US San Nicolas Island Nolf Airport 28 36 10 22/12 29.90 KNSI 072353Z AUTO 31028G36KT 10SM CLR 22/13 A2990 RMK AO2 PK WND 31036/2353 SLP119 T02220128 10239 20211 58014 $
KGK PAJZ Koliganek, US Koliganek Airport 26 33 6 11/10 29.90 PAJZ 072356Z AUTO 21026G33KT 6SM BR OVC009 12/10 A2990 RMK AO2 PK WND 21034/2319 SLP134 60000 T01170100 10117 20083 56006 $
CWZZ 23 33 / 29.52 CWZZ 080026Z AUTO 04023G33KT 010V140 ////SM OVC001 ///// A2952
FMN KFMN Farmington, US Four Corners Regional Airport 18 33 10 22/14 30.19 KFMN 080053Z 09018G33KT 10SM -RA FEW075 BKN100 BKN120 23/14 A3019 RMK AO2 PK WND 12033/0046 LTG DSNT SW TSE12 SLP168 P0002 T02280144

Station
 
Location
 
Name
 
Wind
Knots
Gust
Knots
Vis
SM
Temp/Dew
C
Baro
inHg
METAR
 
CWXI 26 32 16/17 CWXI 080000Z AUTO 22026G32KT 17/18 RMK AO1 PK WND 22032/2320 SLP988 T01650175 56005
GKN PAGK Gulkana, US Gulkana Airport 20 32 10 15/5 29.87 PAGK 080053Z AUTO 16020G32KT 10SM SCT060 16/05 A2987 RMK AO2 PK WND 13032/0048 SLP121 T01560050 TSNO $
YAY CYAY St. Anthony, CA St. Anthony Airport 26 31 9 20/18 29.50 CYAY 080000Z AUTO 22026G31KT 9SM BKN012 20/18 A2950 RMK SLP991 DENSITY ALT 1200FT
KPN PAKI Kipnuk, US Kipnuk Airport 26 30 10 10/ 29.74 PAKI 072356Z AUTO 25026G30KT 10SM OVC007 11/ A2974 RMK AO2 PK WND 25032/2330 SLPNO 6//// T0106
MTY MMMY Monterrey, MX General Mariano Escobedo International Airport 20 30 6 31/18 29.93 MMMY 080030Z 10020G30KT 6SM BKN030CB 31/18 A2993 RMK 8/300 BLDU
DSM KDSM Des Moines, US Des Moines International Airport 7 30 5 26/23 29.94 KDSM 080041Z 22007G30KT 5SM R31/3500VP6000FT -TSRA FEW021 SCT041CB BKN120 OVC250 27/23 A2994 RMK AO2 PK WND 32037/0002 WSHFT 2358 LTG DSNT NE AND E AND W RAB00 OCNL LTGICCG E-SW TS E-SW MOV E P0051 T02670233
ENA PAEN Kenai, US Kenai Municipal Airport 24 30 10 11/8 29.93 PAEN 080053Z 19024G30KT 10SM BKN100 12/08 A2993 RMK AO2 PK WND 19033/2356 RAE2355 SLP138 P0000 T01170083
KJHN 19 30 5 26/15 30.06 KJHN 080055Z AUTO 06019G30KT 5SM VCTSRA SCT021 BKN055 OVC110 26/16 A3006 RMK AO2 LTG DSNT ALQS T02620156
PIP PAPN Pilot Point, US Pilot Point Airport 24 29 7 11/10 30.09 PAPN 072356Z AUTO 24024G29KT 7SM OVC008 12/11 A3009 RMK AO2 PK WND 24029/2351 SLP191 T01170106 10122 20083 58004
PTU PAPM Platinum, US Platinum Airport 23 29 1.25 11/10 29.90 PAPM 080029Z AUTO 23023G29KT 1 1/4SM -RA BR OVC004 11/10 A2990 RMK AO2 PK WND 23030/0002 P0000
RAR NCRG Avarua, CK Rarotonga International Airport 17 29 6.21 25/17 30.03 NCRG 080030Z AUTO 09017G29KT 9999 FEW048/// SCT065/// 25/17 Q1017
SAD KSAD Safford, US Safford Regional Airport 16 29 10 26/16 29.99 KSAD 080051Z AUTO 02016G29KT 10SM TS FEW100 SCT120 26/16 A2999 RMK AO2 PK WND 03049/0012 LTG DSNT SW-N RAB11E47 TSB05 SLP106 P0000 T02610161
UNK PAUN Unalakleet, US Unalakleet Airport 23 29 10 12/10 29.44 PAUN 080052Z AUTO 22023G29KT 10SM SCT008 BKN015 OVC024 12/10 A2944 RMK AO2 PK WND 22030/0037 RAE52 PNO $
BQB YBLN AU Busselton Regional Airport 19 29 1.43 12/11 29.82 YBLN 080055Z AUTO 27019G29KT 2300 +TSRA SCT009 SCT021 BKN035 12/11 Q1010
EDF PAED Anchorage, US Elmendorf Air Force Base 22 28 10 15/6 29.89 PAED 072356Z 20022G28KT 10SM -RA SCT044 BKN065 OVC100 16/06 A2989 RMK AO2A PK WND 21030/54 RAB52 SLP118 P0000 60000 T01590061 10167 20143 55006 FZRANO $
CWAR 23 28 18/18 CWAR 080000Z AUTO 16023G28KT 18/18 RMK AO1 PK WND 16028/2350 SLP108 T01830182 56013
YGX CYGX Gillam, CA Gillam Airport 17 28 15 23/8 29.74 CYGX 080000Z 22017G28KT 15SM SCT047 23/08 A2974 RMK SC4 SLP075 DENSITY ALT 1800FT
YQU CYQU Grande Prairie, CA Grande Prairie Airport 20 28 25 25/10 29.89 CYQU 080000Z 27020G28KT 25SM BKN065 BKN240 25/10 A2989 RMK SC5CI1 SLP125 DENSITY ALT 3900FT
WSN PFWS South Naknek, US South Naknek Nr 2 Airport 20 28 3 11/11 30.01 PFWS 080036Z AUTO 23020G28KT 3SM BR OVC006 11/11 A3001 RMK AO2 PK WND 23028/0028 RAE01 CIG 004V008 P0000
KSIY Montague, US Siskiyou County Airport 19 28 10 36/-8 29.97 KSIY 080053Z AUTO 18019G28KT 10SM CLR 37/M08 A2997 RMK AO2 PK WND 19031/0008 SLP130 T03671083
SAL MSLP San Salvador (San Luis Talpa), SV Monseñor Óscar Arnulfo Romero International Airport 17 28 3.11 24/22 29.85 MSLP 080053Z 08017G28KT 5000 TSRA FEW013 SCT020 BKN033CB BKN043 24/22 Q1011 TEMPO 3000 +TSRA
BET PABE Bethel, US Bethel Airport 20 28 10 11/10 29.72 PABE 080053Z 22020G28KT 10SM OVC010 12/10 A2972 RMK AO2 PK WND 22030/2357 SLP066 T01170100 $
MCG PAMC McGrath, US McGrath Airport 18 28 4 9/7 29.67 PAMC 080053Z 19018G28KT 4SM -RA BR OVC017 09/07 A2967 RMK AO2 PK WND 19030/0021 SLP051 P0001 T00940072
OTZ PAOT Kotzebue, US Ralph Wien Memorial Airport 22 28 10 8/6 29.49 PAOT 080053Z 11022G28KT 10SM -RA SCT022 BKN028 OVC044 08/07 A2949 RMK AO2 PK WND 10029/0022 SLP986 P0001 T00830067 $
LXS LGLM Limnos Island, GR Limnos Airport 16 27 6.21 26/18 29.79 LGLM 072350Z 04016G27KT CAVOK 26/18 Q1009
AKN PAKN King Salmon, US King Salmon Airport 16 27 3 11/10 29.98 PAKN 072354Z 21016G27KT 3SM BR OVC006 11/11 A2998 RMK AO2 PK WND 21028/2338 RAE43 CIG 005V009 SLP153 P0002 60010 T01110106 10111 20089 58004 $
OGG PHOG Kahului, US Kahului Airport 20 27 10 33/17 29.94 PHOG 072354Z 03020G27KT 10SM CLR 34/18 A2994 RMK AO2 PK WND 06027/2346 SLP145 T03390178 10344 20272 56021 $
WJF KWJF Lancaster, US General WM J Fox Airfield 16 27 10 38/4 29.93 KWJF 072356Z 23016G27KT 10SM CLR 39/04 A2993 RMK AO2 PK WND 25027/2348 SLP110 T03890044 10406 20344 56015
CWDO 19 27 24/19 CWDO 080000Z AUTO 23019G27KT 24/19 RMK AO1 PK WND 23028/2335 SLP023 T02400193 55004
SKK PFSH Shaktoolik, US Shaktoolik Airport 21 27 6 11/11 29.39 PFSH 080054Z AUTO 20021G27KT 6SM -RA BR BKN006 BKN010 OVC017 11/11 A2939 RMK AO2 PK WND 20028/0047 P0000
CWDA 11 26 20/ CWDA 080000Z AUTO 27011G26KT 21/ RMK AO1 PK WND 27028/2300 T0207
CWLY 13 26 9 36/8 29.85 CWLY 080000Z AUTO 19013G26KT 9SM CLR 36/08 A2985 RMK SLP105 DENSITY ALT 3400FT
CWRU 19 26 13/ CWRU 080000Z AUTO 02019G26KT 14/ RMK AO1 PK WND 01026/2324 SLP201 T0139 58003
YWK CYWK Wabush, CA Wabush Airport 14 26 15 10/8 29.80 CYWK 080000Z 29014G26KT 15SM -SHRA BKN019 BKN026 10/08 A2980 RMK CU6SC1 SLP105
PTH PAPH Port Heiden, US Port Heiden Airport 17 26 10 13/11 30.14 PAPH 080026Z AUTO 24017G26KT 10SM SCT010 OVC024 13/11 A3014 RMK AO2 PK WND 24026/0023
PMD KPMD Palmdale, US Palmdale Regional/USAF Plant 42 Airport 17 26 10 36/3 29.93 KPMD 080053Z 23017G26KT 10SM CLR 37/04 A2993 RMK AO2 PK WND 25026/0000 SLP105 T03670039 $
MXF KMXF Montgomery, US Maxwell Air Force Base 18 25 10 28/19 30.10 KMXF 072356Z AUTO 15018G25KT 10SM TS BKN047 OVC140 29/19 A3010 RMK AO2 TSB35E50TSB51 SLP194 T02890192 10336 20289 53007
DLG PADL Dillingham, US Dillingham Airport 17 25 4 11/10 29.94 PADL 072356Z 22017G25KT 4SM -RA BR OVC005 11/11 A2994 RMK AO2 SLP139 P0001 60016 T01110106 10111 20083 53003
HPB PAHP Hooper Bay, US Hooper Bay Airport 22 25 10 9/7 29.62 PAHP 072356Z AUTO 26022G25KT 10SM OVC006 09/08 A2962 RMK AO2 SLP029 6//// T00940078 10100 20089 51015 PNO $
YNE CYNE Norway House, CA Norway House Airport 14 25 9 21/12 29.85 CYNE 080000Z AUTO 19014G25KT 9SM CLR 21/12 A2985 RMK SLP114 DENSITY ALT 1700FT
YXT CYXT Terrace, CA Northwest Regional Airport Terrace-Kitimat 15 25 20 23/9 30.08 CYXT 080000Z 25015G25KT 20SM SCT060 23/09 A3008 RMK CU3 SLP190 DENSITY ALT 1600FT
YEK CYEK Arviat, CA Arviat Airport 20 25 3 10/10 29.63 CYEK 080025Z AUTO 10020G25KT 3SM RA BR BKN014 OVC024 10/10 A2963 RMK PCPN 3.0MM PAST HR SLP037
PVS UHMD Chukotka, RU Provideniya Bay Airport 16 25 6.21 5/-1 29.62 UHMD 080030Z 35008G13MPS 9999 OVC033 05/M01 Q1003 RMK QFE751/1002
SNP PASN St Paul Island, US St Paul Island Airport 15 25 3 10/9 29.99 PASN 080037Z AUTO 25015G25KT 3SM BR OVC003 10/09 A2999 RMK AO2 PK WND 25030/0025 RAE2359 P0000 T01000094 TSNO $
YQH CYQH Watson Lake, CA Watson Lake Airport 20 25 30 14/7 29.90 CYQH 080047Z 28020G25KT 30SM -SHRA BKN060 OVC075 14/07 A2990 RMK CU5AC3 SLP138 DENSITY ALT 2700FT